Austin, Mississippi
Current Conditions -  °F | °C
As of 1:35 AM on Sunday 23 Nov 2014 (Local Time) from KUTA Reporting Station
Clear Clear  
Wind Chill: 14°   Ceiling: Unl
Heat Index: 14°   Visibility: 10mi
Dew Point: 11°   Wind: 12mph
Humidity: 82%   Direction: 130°SE
Pressure: 29.87"   Gusts: 17mph
Location:  34.6827°N, 90.3615°W
Report Text: KUTA 230735Z AUTO 13010G15KT 10SM CLR 14/11 A2987 RMK AO2
Loading
Personal Weather Stations






























Interactive Weather Map New forecast layout! Learn more

10-Day Weather Forecast

Advertisements
Track Severe Weather on mobile